Time;durP1;ratioP1;P1;durP2;ratioP2;P2;SDS_P1;SDS_P2;PMS_P1;PMS_P2;Temp;Humidity;BMP_temperature;BMP_pressure;BME280_temperature;BME280_humidity;BME280_pressure;Samples;Min_cycle;Max_cycle;Signal;HPM_P1;HPM_P2
2022/04/09 00:02:18;;;;;;;15.52;8.23;;;;;;;1.11;100.00;95058.78;5024957;28;20041;-71
2022/04/09 00:04:44;;;;;;;13.60;7.28;;;;;;;1.06;100.00;95068.38;5023776;28;20121;-69
2022/04/09 00:07:09;;;;;;;16.65;7.88;;;;;;;1.13;100.00;95074.34;5024142;28;20044;-69
2022/04/09 00:09:35;;;;;;;12.13;7.68;;;;;;;1.15;100.00;95087.28;5056679;28;20504;-70
2022/04/09 00:12:00;;;;;;;10.52;6.70;;;;;;;1.17;100.00;95085.22;5025229;28;20044;-70
2022/04/09 00:14:26;;;;;;;13.55;7.45;;;;;;;1.23;100.00;95100.97;5027968;28;20321;-70
2022/04/09 00:16:52;;;;;;;11.63;6.28;;;;;;;1.29;100.00;95104.53;5025510;28;20029;-70
2022/04/09 00:19:17;;;;;;;12.73;7.57;;;;;;;1.32;100.00;95112.00;5023535;28;20095;-70
2022/04/09 00:21:43;;;;;;;16.85;7.00;;;;;;;1.32;100.00;95117.25;5025236;28;20045;-71
2022/04/09 00:24:08;;;;;;;14.70;7.28;;;;;;;1.29;100.00;95123.78;5024651;28;20522;-69
2022/04/09 00:26:34;;;;;;;13.50;6.65;;;;;;;1.25;100.00;95133.19;5024085;28;20038;-69
2022/04/09 00:28:59;;;;;;;16.17;5.93;;;;;;;1.18;100.00;95137.75;5023933;28;20078;-70
2022/04/09 00:31:25;;;;;;;18.90;7.97;;;;;;;1.19;100.00;95144.63;5020871;28;20043;-71
2022/04/09 00:33:50;;;;;;;15.18;6.78;;;;;;;1.17;100.00;95137.94;5031470;28;20508;-69
2022/04/09 00:36:16;;;;;;;15.95;7.22;;;;;;;1.25;100.00;95148.19;5055709;28;20061;-69
2022/04/09 00:38:42;;;;;;;11.70;6.13;;;;;;;1.27;100.00;95167.22;5024115;28;20029;-69
2022/04/09 00:41:10;;;;;;;11.05;6.10;;;;;;;1.20;100.00;95162.03;5031884;28;20538;-70
2022/04/09 00:43:40;;;;;;;10.65;5.70;;;;;;;1.23;100.00;95166.84;5024552;28;20436;-69
2022/04/09 00:46:06;;;;;;;13.10;6.07;;;;;;;1.25;100.00;95167.44;5030409;28;20516;-69
2022/04/09 00:48:32;;;;;;;12.98;6.18;;;;;;;1.29;100.00;95178.34;5022200;28;20044;-69
2022/04/09 00:50:58;;;;;;;12.82;5.32;;;;;;;1.26;100.00;95179.59;5027486;28;20272;-71
2022/04/09 00:53:25;;;;;;;9.98;5.75;;;;;;;1.31;100.00;95192.09;5025773;28;20036;-70
2022/04/09 00:58:38;;;;;;;12.55;5.55;;;;;;;1.31;100.00;95194.72;5034373;28;20084;-71
2022/04/09 01:01:04;;;;;;;19.02;5.25;;;;;;;1.32;100.00;95201.63;5022969;28;20043;-69
2022/04/09 01:03:33;;;;;;;8.38;3.65;;;;;;;1.29;100.00;95212.59;5027817;28;20459;-69
2022/04/09 01:05:59;;;;;;;10.57;2.90;;;;;;;1.25;100.00;95201.72;5025084;28;20311;-70
2022/04/09 01:08:25;;;;;;;9.85;4.53;;;;;;;1.27;100.00;95212.84;5023066;28;20484;-70
2022/04/09 01:10:51;;;;;;;9.80;5.13;;;;;;;1.30;100.00;95216.84;5042349;28;20037;-70
2022/04/09 01:13:18;;;;;;;13.65;4.65;;;;;;;1.27;100.00;95225.22;5053821;28;20060;-69
2022/04/09 01:15:44;;;;;;;12.68;5.18;;;;;;;1.27;100.00;95241.03;5023162;28;20072;-71
2022/04/09 01:18:10;;;;;;;9.90;3.35;;;;;;;1.27;100.00;95243.66;5032507;28;20124;-70
2022/04/09 01:20:36;;;;;;;15.52;2.95;;;;;;;1.23;100.00;95240.63;5027214;28;20191;-69
2022/04/09 01:23:02;;;;;;;7.28;1.73;;;;;;;1.23;100.00;95251.19;5054573;28;20052;-69
2022/04/09 01:25:28;;;;;;;13.02;4.03;;;;;;;1.24;100.00;95251.97;5021475;28;20041;-71
2022/04/09 01:27:58;;;;;;;5.95;2.30;;;;;;;1.29;100.00;95250.31;5031612;28;20052;-69
2022/04/09 01:30:24;;;;;;;8.35;3.22;;;;;;;1.31;100.00;95260.63;5052056;28;20044;-70
2022/04/09 01:32:49;;;;;;;10.68;3.00;;;;;;;1.28;100.00;95268.97;5031391;28;20037;-70
2022/04/09 01:35:15;;;;;;;7.05;2.42;;;;;;;1.27;100.00;95267.38;5053929;28;20530;-71
2022/04/09 01:37:41;;;;;;;10.52;2.47;;;;;;;1.26;100.00;95271.84;5054310;28;20120;-69
2022/04/09 01:40:08;;;;;;;9.95;3.75;;;;;;;1.29;100.00;95275.88;5024527;28;20039;-69
2022/04/09 01:42:36;;;;;;;7.85;2.40;;;;;;;1.25;100.00;95285.25;5010413;28;20657;-70
2022/04/09 01:45:07;;;;;;;9.02;3.47;;;;;;;1.25;100.00;95293.97;5026983;28;20049;-69
2022/04/09 01:47:35;;;;;;;8.20;3.35;;;;;;;1.22;100.00;95309.38;5026502;28;20587;-70
2022/04/09 01:50:01;;;;;;;4.93;1.95;;;;;;;1.16;100.00;95304.97;5027035;28;20037;-71
2022/04/09 01:52:27;;;;;;;8.98;3.33;;;;;;;1.17;100.00;95310.06;5056148;28;20047;-71
2022/04/09 01:54:53;;;;;;;3.40;1.48;;;;;;;1.21;100.00;95316.47;5025293;28;20041;-69
2022/04/09 01:57:19;;;;;;;9.02;3.58;;;;;;;1.17;100.00;95325.88;5022686;28;20108;-69
2022/04/09 01:59:44;;;;;;;4.45;1.42;;;;;;;1.20;100.00;95325.41;5030057;28;20116;-70
2022/04/09 02:02:12;;;;;;;7.25;2.38;;;;;;;1.19;100.00;95334.34;5038439;28;20057;-70
2022/04/09 02:04:37;;;;;;;4.22;1.98;;;;;;;1.20;100.00;95332.53;5030942;28;20037;-70
2022/04/09 02:07:03;;;;;;;6.45;2.65;;;;;;;1.19;100.00;95331.72;5020195;28;20033;-70
2022/04/09 02:09:29;;;;;;;6.57;2.00;;;;;;;1.19;100.00;95344.91;5027467;28;20033;-69
2022/04/09 02:11:54;;;;;;;5.63;1.63;;;;;;;1.13;100.00;95339.69;5023591;28;20450;-69
2022/04/09 02:14:20;;;;;;;5.13;2.13;;;;;;;1.20;100.00;95350.97;5029537;28;20127;-70
2022/04/09 02:16:46;;;;;;;2.05;1.20;;;;;;;1.16;100.00;95362.94;5020062;28;20049;-69
2022/04/09 02:19:11;;;;;;;7.60;1.98;;;;;;;1.16;100.00;95361.13;5024993;28;20052;-70
2022/04/09 02:21:38;;;;;;;3.67;2.15;;;;;;;1.17;100.00;95356.66;5053999;28;20119;-70
2022/04/09 02:24:03;;;;;;;2.75;1.23;;;;;;;1.15;100.00;95364.78;5039781;28;20045;-69
2022/04/09 02:26:29;;;;;;;2.75;1.75;;;;;;;1.11;100.00;95379.44;5031243;28;20392;-71
2022/04/09 02:28:56;;;;;;;8.25;1.90;;;;;;;1.09;100.00;95376.22;5021401;28;20094;-69
2022/04/09 02:31:22;;;;;;;8.23;2.97;;;;;;;1.11;100.00;95389.97;5054800;28;20316;-69
2022/04/09 02:33:49;;;;;;;6.00;2.20;;;;;;;1.06;100.00;95393.22;5026162;28;20041;-70
2022/04/09 02:36:15;;;;;;;6.30;2.47;;;;;;;0.98;100.00;95395.31;5007656;28;20549;-69
2022/04/09 02:38:42;;;;;;;7.25;2.72;;;;;;;1.04;100.00;95410.28;5053614;28;20292;-70
2022/04/09 02:41:09;;;;;;;2.35;1.13;;;;;;;1.04;100.00;95421.63;5053851;28;20536;-69
2022/04/09 02:43:36;;;;;;;7.47;3.28;;;;;;;1.06;100.00;95409.03;5042481;28;20052;-69
2022/04/09 02:46:02;;;;;;;8.95;3.85;;;;;;;1.02;100.00;95413.13;5024527;28;20248;-72
2022/04/09 02:48:28;;;;;;;8.13;3.80;;;;;;;1.08;100.00;95416.72;5030770;28;20091;-70
2022/04/09 02:50:54;;;;;;;4.97;2.65;;;;;;;1.11;100.00;95435.56;5024825;28;20483;-69
2022/04/09 02:53:22;;;;;;;14.82;3.90;;;;;;;1.07;100.00;95439.63;5035705;28;20147;-71
2022/04/09 02:55:48;;;;;;;8.82;3.08;;;;;;;1.05;100.00;95432.97;5029251;28;20452;-71
2022/04/09 02:58:14;;;;;;;11.88;4.25;;;;;;;1.08;100.00;95443.88;5032641;28;20044;-70
2022/04/09 03:00:43;;;;;;;7.43;2.80;;;;;;;1.08;100.00;95437.81;5025718;28;20049;-71
2022/04/09 03:03:08;;;;;;;5.72;3.03;;;;;;;1.11;100.00;95474.28;5032911;28;20053;-70
2022/04/09 03:05:42;;;;;;;7.60;2.33;;;;;;;1.04;100.00;95461.16;5024625;28;20056;-69
2022/04/09 03:08:07;;;;;;;7.03;2.60;;;;;;;1.00;100.00;95465.22;5057067;28;20387;-69
2022/04/09 03:10:33;;;;;;;4.70;2.28;;;;;;;0.96;100.00;95469.31;5024445;28;20551;-70
2022/04/09 03:12:58;;;;;;;10.93;5.95;;;;;;;0.94;100.00;95458.19;5024049;28;20069;-71
2022/04/09 03:15:24;;;;;;;8.02;4.18;;;;;;;0.92;100.00;95472.56;5030430;28;20037;-70
2022/04/09 03:17:50;;;;;;;9.45;4.25;;;;;;;0.97;100.00;95473.56;5058379;28;20092;-69
2022/04/09 03:20:17;;;;;;;7.35;2.55;;;;;;;1.02;100.00;95488.75;5024268;28;20026;-70
2022/04/09 03:22:49;;;;;;;12.20;6.20;;;;;;;1.02;100.00;95476.38;5027043;28;20034;-70
2022/04/09 03:25:25;;;;;;;5.97;3.15;;;;;;;1.04;100.00;95478.78;5033012;28;20064;-69
2022/04/09 03:27:53;;;;;;;11.50;5.95;;;;;;;1.05;100.00;95486.47;5024334;28;20152;-69
2022/04/09 03:30:19;;;;;;;8.73;4.10;;;;;;;1.09;100.00;95489.50;5055990;28;20388;-70
2022/04/09 03:32:46;;;;;;;11.00;3.85;;;;;;;1.09;100.00;95502.69;5022960;28;20045;-69
2022/04/09 03:35:17;;;;;;;9.77;3.50;;;;;;;1.03;100.00;95499.06;5034325;28;20048;-69
2022/04/09 03:37:45;;;;;;;6.57;3.13;;;;;;;0.95;100.00;95503.78;5031508;28;20041;-70
2022/04/09 03:40:13;;;;;;;11.85;4.07;;;;;;;0.95;100.00;95509.03;5033025;28;20038;-70
2022/04/09 03:42:40;;;;;;;8.38;3.42;;;;;;;0.89;100.00;95517.78;5033925;28;20028;-70
2022/04/09 03:45:06;;;;;;;10.55;3.05;;;;;;;0.91;100.00;95516.53;5028811;28;20052;-70
2022/04/09 03:47:33;;;;;;;15.63;4.35;;;;;;;0.93;100.00;95521.59;5055446;28;20049;-69
2022/04/09 03:50:01;;;;;;;11.52;3.35;;;;;;;0.94;100.00;95525.88;5032638;28;20033;-70
2022/04/09 03:52:27;;;;;;;7.40;2.67;;;;;;;0.95;100.00;95535.38;5033327;28;20045;-71
2022/04/09 03:54:52;;;;;;;6.53;2.92;;;;;;;0.95;100.00;95540.66;5012996;28;20033;-69
2022/04/09 03:57:19;;;;;;;5.50;2.25;;;;;;;0.92;100.00;95541.06;5027277;28;20695;-70
2022/04/09 03:59:51;;;;;;;10.13;3.30;;;;;;;0.94;100.00;95562.75;5032071;28;20436;-69
2022/04/09 04:02:17;;;;;;;4.85;1.77;;;;;;;0.87;100.00;95540.91;5031640;28;20034;-71
2022/04/09 04:04:43;;;;;;;4.22;1.83;;;;;;;0.90;100.00;95553.63;5056923;28;20045;-71
2022/04/09 04:07:09;;;;;;;6.68;2.30;;;;;;;0.88;100.00;95584.66;5026119;28;20146;-69
2022/04/09 04:09:37;;;;;;;6.32;2.28;;;;;;;0.83;100.00;95564.19;5026888;28;20048;-71
2022/04/09 04:12:03;;;;;;;13.10;2.40;;;;;;;0.85;100.00;95562.16;5025766;28;20041;-69
2022/04/09 04:14:30;;;;;;;9.02;2.40;;;;;;;0.85;100.00;95562.16;5032953;28;20120;-71
2022/04/09 04:16:57;;;;;;;13.52;3.05;;;;;;;0.84;100.00;95577.16;5026433;28;20045;-71
2022/04/09 04:19:24;;;;;;;8.75;2.33;;;;;;;0.78;100.00;95575.38;5032497;28;20034;-69
2022/04/09 04:21:52;;;;;;;5.03;2.42;;;;;;;0.84;100.00;95568.44;5027013;28;20037;-70
2022/04/09 04:24:18;;;;;;;10.80;2.78;;;;;;;0.84;100.00;95579.78;5014150;28;20111;-69
2022/04/09 04:26:44;;;;;;;4.97;2.25;;;;;;;0.78;100.00;95585.91;5056500;28;20350;-69
2022/04/09 04:29:16;;;;;;;6.22;2.33;;;;;;;0.83;100.00;95593.19;5020970;28;20032;-69
2022/04/09 04:31:42;;;;;;;10.27;3.20;;;;;;;0.81;100.00;95589.94;5054437;28;20095;-69
2022/04/09 04:34:08;;;;;;;9.27;3.33;;;;;;;0.72;100.00;95597.28;5024536;28;20037;-69
2022/04/09 04:36:41;;;;;;;10.73;3.40;;;;;;;0.64;100.00;95594.06;5024267;28;20037;-69
2022/04/09 04:39:07;;;;;;;9.57;3.30;;;;;;;0.77;100.00;95600.06;5025349;28;20037;-69
2022/04/09 04:41:33;;;;;;;14.02;2.78;;;;;;;0.81;100.00;95609.19;5030185;28;20060;-69
2022/04/09 04:43:59;;;;;;;14.93;3.05;;;;;;;0.83;100.00;95615.06;5055191;28;20049;-71
2022/04/09 04:46:33;;;;;;;9.50;2.42;;;;;;;0.88;100.00;95618.91;5031616;28;20037;-70
2022/04/09 04:48:59;;;;;;;5.30;2.17;;;;;;;0.89;100.00;95633.69;5032280;28;20144;-70
2022/04/09 04:51:26;;;;;;;4.18;2.38;;;;;;;0.77;100.00;95612.44;5024758;28;20080;-71
2022/04/09 04:53:52;;;;;;;8.95;2.00;;;;;;;0.72;100.00;95633.34;5031518;28;20362;-70
2022/04/09 04:56:18;;;;;;;9.20;3.58;;;;;;;0.71;100.00;95643.06;5024102;28;20072;-71
2022/04/09 04:58:48;;;;;;;15.13;2.90;;;;;;;0.72;100.00;95634.16;5023753;28;20548;-70
2022/04/09 05:01:15;;;;;;;8.70;3.65;;;;;;;0.78;100.00;95648.31;5055584;28;20072;-70
2022/04/09 05:03:46;;;;;;;2.77;1.73;;;;;;;0.78;100.00;95659.66;5023743;28;20095;-69
2022/04/09 05:06:23;;;;;;;10.07;3.20;;;;;;;0.77;100.00;95658.03;5053499;28;20067;-71
2022/04/09 05:08:51;;;;;;;7.82;2.10;;;;;;;0.61;100.00;95647.94;5024071;28;20080;-70
2022/04/09 05:11:26;;;;;;;2.35;1.23;;;;;;;0.64;100.00;95649.38;5024164;28;20041;-69
2022/04/09 05:13:52;;;;;;;7.43;2.28;;;;;;;0.59;100.00;95660.50;5023232;28;20091;-69
2022/04/09 05:16:19;;;;;;;6.93;2.58;;;;;;;0.52;100.00;95651.78;5030561;28;20388;-70
2022/04/09 05:18:55;;;;;;;9.57;2.40;;;;;;;0.55;100.00;95664.56;5026766;28;20045;-70
2022/04/09 05:21:20;;;;;;;3.10;1.27;;;;;;;0.63;100.00;95660.91;5032879;28;20047;-70
2022/04/09 05:23:46;;;;;;;10.57;3.17;;;;;;;0.71;100.00;95658.88;5057155;28;20131;-70
2022/04/09 05:26:12;;;;;;;7.50;1.83;;;;;;;0.75;100.00;95680.31;5030711;28;20636;-69
2022/04/09 05:28:39;;;;;;;5.68;1.88;;;;;;;0.79;100.00;95676.28;5021924;28;20119;-71
2022/04/09 05:31:05;;;;;;;11.43;2.80;;;;;;;0.89;100.00;95681.91;5021527;28;20042;-69
2022/04/09 05:33:30;;;;;;;8.65;2.38;;;;;;;0.93;100.00;95683.09;5055462;28;20033;-71
2022/04/09 05:35:58;;;;;;;15.02;2.20;;;;;;;1.01;100.00;95688.19;5055677;28;20164;-69
2022/04/09 05:38:25;;;;;;;6.47;1.60;;;;;;;0.95;100.00;95707.44;5025671;28;20042;-71
2022/04/09 05:40:53;;;;;;;1.65;0.93;;;;;;;0.88;100.00;95705.84;5025822;28;20041;-69
2022/04/09 05:43:20;;;;;;;12.40;2.42;;;;;;;0.80;100.00;95698.97;5037507;28;20034;-69
2022/04/09 05:45:50;;;;;;;4.28;1.13;;;;;;;0.70;100.00;95702.03;5024471;28;20041;-70
2022/04/09 05:48:20;;;;;;;12.32;1.85;;;;;;;0.77;100.00;95710.69;5024146;28;20060;-69
2022/04/09 05:50:51;;;;;;;4.28;1.02;;;;;;;0.78;100.00;95712.34;5028754;28;20044;-70
2022/04/09 05:53:18;;;;;;;7.45;1.58;;;;;;;0.80;100.00;95728.75;5026337;28;20048;-70
2022/04/09 05:55:46;;;;;;;9.30;2.47;;;;;;;0.78;100.00;95730.78;5038970;28;20530;-72
2022/04/09 05:58:12;;;;;;;3.85;1.75;;;;;;;0.90;100.00;95727.50;5030338;28;20037;-70
2022/04/09 06:00:40;;;;;;;9.13;2.00;;;;;;;0.96;100.00;95737.22;5029239;28;20129;-69
2022/04/09 06:03:17;;;;;;;9.25;2.83;;;;;;;0.99;100.00;95745.50;5024467;28;20142;-70
2022/04/09 06:05:43;;;;;;;4.55;1.33;;;;;;;1.02;100.00;95760.94;5031636;28;20037;-71
2022/04/09 06:08:17;;;;;;;5.07;1.15;;;;;;;1.11;100.00;95764.16;5031500;28;20025;-71
2022/04/09 06:10:43;;;;;;;6.50;2.22;;;;;;;1.10;100.00;95767.81;5037945;28;20075;-69
2022/04/09 06:13:10;;;;;;;12.18;2.05;;;;;;;1.18;100.00;95772.06;5023282;28;20079;-70
2022/04/09 06:15:36;;;;;;;9.05;1.15;;;;;;;1.25;100.00;95778.13;5025429;28;20051;-71
2022/04/09 06:18:08;;;;;;;6.18;1.35;;;;;;;1.26;100.00;95775.28;5024433;28;20402;-70
2022/04/09 06:20:34;;;;;;;7.57;2.00;;;;;;;1.45;100.00;95785.97;5025674;28;20079;-71
2022/04/09 06:23:04;;;;;;;13.18;3.00;;;;;;;1.38;100.00;95780.69;5026002;28;20041;-70
2022/04/09 06:25:30;;;;;;;7.50;2.25;;;;;;;1.33;100.00;95789.25;5030987;28;20484;-70
2022/04/09 06:27:55;;;;;;;4.78;1.45;;;;;;;1.32;100.00;95787.63;5038497;28;20038;-70
2022/04/09 06:30:21;;;;;;;12.05;1.83;;;;;;;1.36;100.00;95785.38;5027952;28;20044;-70
2022/04/09 06:32:55;;;;;;;14.35;2.72;;;;;;;1.44;100.00;95802.81;5037008;28;20033;-70
2022/04/09 06:35:23;;;;;;;18.52;3.53;;;;;;;1.50;100.00;95794.06;5053979;28;20418;-70
2022/04/09 06:37:48;;;;;;;7.95;2.25;;;;;;;1.55;100.00;95812.69;5033754;28;20029;-71
2022/04/09 06:40:17;;;;;;;9.85;2.35;;;;;;;1.62;100.00;95803.75;5028011;28;20553;-70
2022/04/09 06:42:44;;;;;;;3.42;1.60;;;;;;;1.67;100.00;95806.56;5020940;28;20048;-69
2022/04/09 06:45:29;;;;;;;13.77;1.83;;;;;;;1.73;100.00;95812.06;5013013;28;20049;-70
2022/04/09 06:48:24;;;;;;;12.75;3.22;;;;;;;1.73;100.00;95810.22;5009811;28;20574;-71
2022/04/09 06:51:09;;;;;;;4.97;1.48;;;;;;;1.75;100.00;95816.09;5023245;28;20520;-71
2022/04/09 06:53:35;;;;;;;16.90;3.33;;;;;;;1.72;100.00;95810.44;5053618;28;20418;-69
2022/04/09 06:56:04;;;;;;;8.82;2.33;;;;;;;1.81;100.00;95820.53;5052383;28;20049;-70
2022/04/09 06:58:30;;;;;;;12.18;2.88;;;;;;;1.92;100.00;95834.91;5024118;28;20040;-70
2022/04/09 07:00:55;;;;;;;15.65;3.35;;;;;;;1.88;100.00;95829.25;5051684;28;20041;-72
2022/04/09 07:03:21;;;;;;;19.27;3.33;;;;;;;2.12;100.00;95840.09;5024348;28;20045;-70
2022/04/09 07:05:47;;;;;;;11.30;3.33;;;;;;;2.11;100.00;95836.66;5022249;28;20044;-71
2022/04/09 07:08:12;;;;;;;15.85;4.20;;;;;;;2.17;100.00;95845.53;5020732;28;20048;-70
2022/04/09 07:10:38;;;;;;;5.28;1.33;;;;;;;2.25;100.00;95834.72;5020277;28;20060;-69
2022/04/09 07:13:05;;;;;;;11.00;1.60;;;;;;;2.27;100.00;95845.91;5024138;28;20065;-69
2022/04/09 07:15:32;;;;;;;7.20;1.90;;;;;;;2.29;100.00;95857.06;5020705;28;20033;-69
2022/04/09 07:17:57;;;;;;;11.57;2.38;;;;;;;2.34;100.00;95864.38;5021813;28;20044;-70
2022/04/09 07:20:23;;;;;;;8.38;1.48;;;;;;;2.32;100.00;95854.00;5023964;28;20040;-70
2022/04/09 07:22:48;;;;;;;6.82;1.60;;;;;;;2.38;100.00;95865.56;5023781;28;20438;-69
2022/04/09 07:25:16;;;;;;;14.23;2.42;;;;;;;2.45;100.00;95877.69;5025109;28;20042;-69
2022/04/09 07:27:49;;;;;;;8.38;2.03;;;;;;;2.48;100.00;95881.75;5022835;28;20045;-69
2022/04/09 07:30:20;;;;;;;4.93;1.35;;;;;;;2.56;100.00;95878.84;5025453;28;20091;-70
2022/04/09 07:32:47;;;;;;;15.25;1.95;;;;;;;2.55;100.00;95876.41;5026485;28;20388;-70
2022/04/09 07:35:16;;;;;;;14.90;1.95;;;;;;;2.70;100.00;95876.94;5027427;28;20091;-70
2022/04/09 07:37:45;;;;;;;9.15;2.13;;;;;;;2.83;100.00;95884.78;5026190;28;20045;-70
2022/04/09 07:40:13;;;;;;;10.02;1.60;;;;;;;2.69;100.00;95888.53;5022899;28;20063;-70
2022/04/09 07:42:41;;;;;;;14.68;1.58;;;;;;;2.78;100.00;95892.53;5027856;28;20037;-70
2022/04/09 07:45:07;;;;;;;9.13;2.42;;;;;;;2.86;100.00;95884.34;5025857;28;20443;-70
2022/04/09 07:47:33;;;;;;;15.00;2.45;;;;;;;2.98;100.00;95887.94;5027014;28;20040;-69
2022/04/09 07:50:00;;;;;;;12.52;3.35;;;;;;;3.31;100.00;95887.69;5026281;28;20511;-69
2022/04/09 07:52:26;;;;;;;10.15;1.52;;;;;;;3.29;100.00;95899.50;5026464;28;20037;-69
2022/04/09 07:54:52;;;;;;;7.03;1.35;;;;;;;3.40;100.00;95890.03;5023602;28;20033;-71
2022/04/09 07:57:18;;;;;;;8.02;1.98;;;;;;;3.41;100.00;95895.13;5024920;28;20522;-69
2022/04/09 07:59:43;;;;;;;13.65;2.00;;;;;;;3.49;100.00;95904.59;5025951;28;20171;-69
2022/04/09 08:02:09;;;;;;;13.93;1.90;;;;;;;3.68;100.00;95900.97;5025607;28;20436;-69
2022/04/09 08:04:34;;;;;;;6.55;2.05;;;;;;;3.52;100.00;95904.19;5027036;28;20069;-69
2022/04/09 08:06:59;;;;;;;14.93;2.33;;;;;;;3.51;100.00;95919.25;5025892;28;20106;-69
2022/04/09 08:09:25;;;;;;;9.80;2.08;;;;;;;3.55;100.00;95909.84;5024429;28;20125;-69
2022/04/09 08:11:50;;;;;;;10.95;1.25;;;;;;;3.23;100.00;95916.22;5025825;28;20127;-71
2022/04/09 08:14:16;;;;;;;2.20;0.73;;;;;;;3.22;100.00;95917.25;5024479;28;20044;-69
2022/04/09 08:16:41;;;;;;;10.95;1.88;;;;;;;3.38;100.00;95935.22;5024080;28;20559;-69
2022/04/09 08:19:07;;;;;;;8.82;2.33;;;;;;;3.57;100.00;95936.88;5023304;28;20095;-69
2022/04/09 08:21:33;;;;;;;8.55;1.30;;;;;;;3.75;100.00;95927.38;5023312;28;20243;-69
2022/04/09 08:23:59;;;;;;;7.53;1.85;;;;;;;3.69;100.00;95928.25;5026069;28;20102;-70
2022/04/09 08:26:24;;;;;;;7.13;1.33;;;;;;;3.84;100.00;95923.44;5024172;28;20049;-69
2022/04/09 08:28:50;;;;;;;17.25;1.98;;;;;;;4.01;100.00;95924.47;5022464;28;20063;-70
2022/04/09 08:31:15;;;;;;;6.70;1.40;;;;;;;3.95;100.00;95930.63;5014213;28;20481;-69
2022/04/09 08:33:42;;;;;;;4.10;1.10;;;;;;;3.71;100.00;95934.13;5024744;28;20661;-71
2022/04/09 08:36:07;;;;;;;4.68;1.23;;;;;;;3.79;100.00;95928.56;5024073;28;20105;-69
2022/04/09 08:38:33;;;;;;;12.75;1.73;;;;;;;4.26;100.00;95926.22;5023012;28;20177;-69
2022/04/09 08:41:03;;;;;;;8.70;1.98;;;;;;;4.56;100.00;95928.94;5024820;28;20128;-71
2022/04/09 08:43:29;;;;;;;2.55;1.20;;;;;;;4.56;100.00;95934.22;5025158;28;20041;-69
2022/04/09 08:45:55;;;;;;;5.72;1.20;;;;;;;4.61;100.00;95926.44;5026051;28;20586;-70
2022/04/09 08:48:21;;;;;;;9.63;1.48;;;;;;;4.22;100.00;95925.06;5022249;28;20045;-69
2022/04/09 08:50:47;;;;;;;2.63;0.90;;;;;;;4.01;100.00;95927.13;5027602;28;20056;-69
2022/04/09 08:53:13;;;;;;;7.57;1.58;;;;;;;3.78;100.00;95926.94;5022566;28;20056;-69
2022/04/09 08:55:40;;;;;;;9.57;1.30;;;;;;;4.31;100.00;95963.47;5024467;28;20115;-70
2022/04/09 08:58:06;;;;;;;6.13;1.10;;;;;;;4.52;100.00;95930.41;5024017;28;20457;-69
2022/04/09 09:00:33;;;;;;;4.75;1.60;;;;;;;4.96;100.00;95931.84;5021050;28;20053;-71
2022/04/09 09:03:00;;;;;;;2.22;1.05;;;;;;;4.70;100.00;95949.75;5024941;28;20037;-70
2022/04/09 09:05:33;;;;;;;8.73;1.65;;;;;;;4.30;100.00;95930.88;5022740;28;20049;-69
2022/04/09 09:07:59;;;;;;;2.72;1.10;;;;;;;4.12;100.00;95946.75;5054995;28;20045;-70
2022/04/09 09:10:24;;;;;;;7.18;2.03;;;;;;;4.04;100.00;95947.84;5024070;28;20098;-70
2022/04/09 09:13:03;;;;;;;9.85;1.67;;;;;;;4.07;100.00;95960.66;5024698;28;20498;-70
2022/04/09 09:15:29;;;;;;;9.23;1.40;;;;;;;4.22;100.00;95947.06;5023413;28;20048;-69
2022/04/09 09:17:59;;;;;;;13.90;1.58;;;;;;;4.39;100.00;95939.31;5027553;28;20057;-69
2022/04/09 09:20:24;;;;;;;8.02;2.80;;;;;;;4.84;100.00;95946.94;5023083;28;20040;-71
2022/04/09 09:22:51;;;;;;;11.40;2.05;;;;;;;5.25;100.00;95936.31;5021260;28;20445;-69
2022/04/09 09:25:17;;;;;;;3.90;1.02;;;;;;;5.41;100.00;95944.66;5023357;28;20610;-70
2022/04/09 09:27:42;;;;;;;13.48;2.60;;;;;;;5.59;100.00;95947.22;5024753;28;20036;-70
2022/04/09 09:30:10;;;;;;;7.15;1.30;;;;;;;5.39;100.00;95952.06;5022340;28;20049;-70
2022/04/09 09:32:38;;;;;;;8.23;2.33;;;;;;;5.07;100.00;95933.75;5023625;28;20344;-69
2022/04/09 09:35:05;;;;;;;7.20;1.60;;;;;;;4.83;100.00;95940.00;5004623;28;20066;-71
2022/04/09 09:37:31;;;;;;;5.20;1.05;;;;;;;4.82;100.00;95954.28;5023637;28;20125;-69
2022/04/09 09:39:57;;;;;;;12.30;1.38;;;;;;;4.94;100.00;95947.19;5024816;28;20076;-70
2022/04/09 09:42:24;;;;;;;2.45;0.88;;;;;;;4.93;100.00;95948.22;5021346;28;20492;-70
2022/04/09 09:44:50;;;;;;;9.98;2.05;;;;;;;4.83;100.00;95950.63;5024107;28;20049;-69
2022/04/09 09:47:19;;;;;;;6.13;1.08;;;;;;;5.19;100.00;95942.53;5024278;28;20377;-69
2022/04/09 09:49:59;;;;;;;4.20;0.93;;;;;;;6.01;100.00;95933.88;5024920;28;20527;-69
2022/04/09 09:52:36;;;;;;;1.90;0.90;;;;;;;6.34;100.00;95941.22;5023551;28;20037;-70
2022/04/09 09:55:10;;;;;;;3.53;1.48;;;;;;;6.23;100.00;95940.22;5020395;28;20050;-69
2022/04/09 09:57:38;;;;;;;3.50;1.10;;;;;;;5.51;100.00;95968.78;5021712;28;20060;-69
2022/04/09 10:00:07;;;;;;;3.30;1.13;;;;;;;4.65;100.00;95962.84;5022331;28;20425;-71
2022/04/09 10:02:33;;;;;;;5.07;1.63;;;;;;;4.48;100.00;95973.25;5023216;28;20559;-69
2022/04/09 10:04:59;;;;;;;10.98;1.85;;;;;;;4.51;100.00;95961.38;5025565;28;20040;-70
2022/04/09 10:07:25;;;;;;;6.57;1.45;;;;;;;5.04;100.00;95955.41;5023651;28;20045;-71
2022/04/09 10:09:53;;;;;;;7.68;1.27;;;;;;;5.28;100.00;95965.03;5023498;28;20057;-70
2022/04/09 10:12:24;;;;;;;5.20;1.08;;;;;;;5.39;100.00;95973.28;5025281;28;20038;-69
2022/04/09 10:14:54;;;;;;;;;;;;;;;5.40;100.00;95967.75;5023270;28;20029;-70
2022/04/09 10:17:21;;;;;;;3.00;1.02;;;;;;;5.66;100.00;95950.56;5024969;28;20379;-69
2022/04/09 10:19:56;;;;;;;4.88;1.20;;;;;;;6.09;100.00;95941.50;5024510;28;20322;-69
2022/04/09 10:22:28;;;;;;;5.07;1.75;;;;;;;6.83;100.00;95950.44;5023546;28;20045;-70
2022/04/09 10:24:55;;;;;;;2.65;1.10;;;;;;;6.60;100.00;95950.53;5023701;28;20041;-69
2022/04/09 10:27:38;;;;;;;2.15;0.82;;;;;;;5.85;100.00;95968.03;5021930;28;20405;-71
2022/04/09 10:30:17;;;;;;;4.55;1.00;;;;;;;5.42;100.00;95986.88;5021737;28;20448;-69
2022/04/09 10:32:46;;;;;;;5.82;1.52;;;;;;;6.00;100.00;95974.78;5022605;28;20261;-69
2022/04/09 10:35:31;;;;;;;4.05;1.67;;;;;;;6.60;100.00;95977.09;5021823;28;20117;-69
2022/04/09 10:38:16;;;;;;;3.85;1.17;;;;;;;6.84;100.00;95983.16;5021949;28;20132;-70
2022/04/09 10:40:52;;;;;;;16.20;1.85;;;;;;;7.71;100.00;95969.59;5023250;28;20324;-71
2022/04/09 10:43:23;;;;;;;2.45;1.00;;;;;;;8.88;96.83;95974.72;5023980;28;20095;-70
2022/04/09 10:46:08;;;;;;;2.42;0.90;;;;;;;9.10;80.57;95961.31;5022564;28;20362;-69
2022/04/09 10:48:36;;;;;;;7.57;1.20;;;;;;;9.49;82.57;95961.16;5023380;28;20830;-69
2022/04/09 10:51:05;;;;;;;7.40;1.52;;;;;;;8.60;85.21;95962.34;4992073;28;20065;-71
2022/04/09 10:53:42;;;;;;;3.08;1.00;;;;;;;7.50;91.20;95960.44;5023141;28;20037;-69
2022/04/09 10:56:14;;;;;;;6.10;1.42;;;;;;;7.96;91.37;95969.97;5022299;28;20041;-70
2022/04/09 10:59:04;;;;;;;8.73;1.98;;;;;;;8.04;88.12;95968.75;5023078;28;20049;-71
2022/04/09 11:01:48;;;;;;;3.00;1.10;;;;;;;7.79;84.50;95971.84;5022436;28;20394;-69
2022/04/09 11:04:29;;;;;;;5.20;1.35;;;;;;;7.15;100.00;96011.16;5022053;28;20052;-69
2022/04/09 11:07:02;;;;;;;3.27;0.97;;;;;;;6.09;100.00;96011.38;5021166;28;20050;-71
2022/04/09 11:09:49;;;;;;;2.75;1.05;;;;;;;4.66;100.00;96033.38;5025372;28;20366;-69
2022/04/09 11:12:20;;;;;;;5.85;1.25;;;;;;;4.93;100.00;96031.22;5025570;28;20241;-70
2022/04/09 11:14:49;;;;;;;5.68;1.05;;;;;;;5.47;100.00;96031.34;5027563;28;20037;-69
2022/04/09 11:17:25;;;;;;;6.45;1.55;;;;;;;12.03;94.37;96017.84;5026824;28;20037;-70
2022/04/09 11:19:51;;;;;;;3.53;1.20;;;;;;;13.29;71.28;96010.59;5026028;28;20048;-70
2022/04/09 11:22:17;;;;;;;5.28;1.50;;;;;;;13.18;66.65;96000.97;5027327;28;20053;-71
2022/04/09 11:24:43;;;;;;;3.15;1.15;;;;;;;14.59;60.39;96002.16;5027559;28;20094;-69
2022/04/09 11:27:10;;;;;;;5.28;1.33;;;;;;;11.77;81.49;96019.66;5034709;28;20042;-69
2022/04/09 11:29:37;;;;;;;10.10;1.63;;;;;;;9.07;100.00;96027.75;5026358;28;20061;-70
2022/04/09 11:32:03;;;;;;;5.57;2.25;;;;;;;7.67;100.00;96046.47;5025648;28;20515;-71
2022/04/09 11:34:53;;;;;;;6.45;1.80;;;;;;;7.43;100.00;96044.97;5027213;28;20507;-69
2022/04/09 11:37:20;;;;;;;6.05;1.70;;;;;;;8.39;100.00;96043.13;5019029;28;20710;-69
2022/04/09 11:39:47;;;;;;;8.77;1.83;;;;;;;7.75;100.00;96047.94;5026473;28;20541;-69